Time,TemperatureF,DewpointF,PressureIn,WindDirection,WindDirectionDegrees,WindSpeedMPH,WindSpeedGustMPH,Humidity,HourlyPrecipIn,Conditions,Clouds,dailyrainin,SoftwareType,DateUTC
2013-01-16 00:04:00,23.2,19.1,30.09,NNW,338,0.0,0.0,84,0.00,CLR,,0.00,WeatherDisplay:10.37,2013-01-16 09:04:00,
2013-01-16 00:09:00,23.2,19.1,30.09,NNW,338,0.0,0.0,84,0.00,CLR,,0.00,WeatherDisplay:10.37,2013-01-16 09:09:00,
2013-01-16 00:14:00,23.4,19.5,30.09,North,0,0.0,0.0,85,0.00,CLR,,0.00,WeatherDisplay:10.37,2013-01-16 09:14:00,
2013-01-16 00:19:00,23.4,19.5,30.09,NNW,338,0.0,0.0,85,0.00,CLR,,0.00,WeatherDisplay:10.37,2013-01-16 09:19:00,
2013-01-16 00:24:00,23.4,19.5,30.09,NNW,338,0.0,0.0,85,0.00,CLR,,0.00,WeatherDisplay:10.37,2013-01-16 09:24:00,
2013-01-16 00:29:00,23.2,19.1,30.09,NE,45,0.0,0.0,84,0.00,CLR,,0.00,WeatherDisplay:10.37,2013-01-16 09:29:00,
2013-01-16 00:34:00,23.0,18.9,30.09,NE,45,0.0,0.0,84,0.00,CLR,,0.00,WeatherDisplay:10.37,2013-01-16 09:34:00,
2013-01-16 00:39:00,22.8,18.7,30.09,NE,45,0.0,0.0,84,0.00,CLR,,0.00,WeatherDisplay:10.37,2013-01-16 09:39:00,
2013-01-16 00:44:00,22.8,18.7,30.09,NE,45,0.0,0.0,84,0.00,CLR,,0.00,WeatherDisplay:10.37,2013-01-16 09:44:00,
2013-01-16 00:49:00,22.8,18.7,30.09,NE,45,0.0,0.0,84,0.00,CLR,,0.00,WeatherDisplay:10.37,2013-01-16 09:49:00,
2013-01-16 00:54:00,22.8,18.7,30.09,NE,45,0.0,0.0,84,0.00,CLR,,0.00,WeatherDisplay:10.37,2013-01-16 09:54:00,
2013-01-16 00:59:00,22.8,18.7,30.09,NE,45,0.0,0.0,84,0.00,CLR,,0.00,WeatherDisplay:10.37,2013-01-16 09:59:00,
2013-01-16 01:04:00,22.8,18.7,30.09,NE,45,0.0,0.0,84,0.00,CLR,,0.00,WeatherDisplay:10.37,2013-01-16 10:04:00,
2013-01-16 01:09:00,22.8,18.7,30.09,NE,45,0.0,0.0,84,0.00,CLR,,0.00,WeatherDisplay:10.37,2013-01-16 10:09:00,
2013-01-16 01:14:00,23.0,19.2,30.09,NE,45,0.0,0.0,85,0.00,CLR,,0.00,WeatherDisplay:10.37,2013-01-16 10:14:00,
2013-01-16 01:19:00,23.0,19.2,30.09,NE,45,0.0,0.0,85,0.00,CLR,,0.00,WeatherDisplay:10.37,2013-01-16 10:19:00,
2013-01-16 01:24:00,23.2,19.3,30.09,NE,45,0.0,0.0,85,0.00,CLR,,0.00,WeatherDisplay:10.37,2013-01-16 10:24:00,
2013-01-16 01:29:00,23.2,19.3,30.09,NE,45,0.0,0.0,85,0.00,CLR,,0.00,WeatherDisplay:10.37,2013-01-16 10:29:00,
2013-01-16 01:34:00,23.4,19.5,30.09,NNW,338,0.0,0.0,85,0.00,CLR,,0.00,WeatherDisplay:10.37,2013-01-16 10:34:00,
2013-01-16 01:39:00,23.4,19.8,30.09,NNW,338,0.0,0.0,86,0.00,CLR,,0.00,WeatherDisplay:10.37,2013-01-16 10:39:00,
2013-01-16 01:44:00,23.4,19.8,30.09,North,0,0.0,0.0,86,0.00,CLR,,0.00,WeatherDisplay:10.37,2013-01-16 10:44:00,
2013-01-16 01:49:00,23.4,19.8,30.09,NNW,338,0.0,0.0,86,0.00,CLR,,0.00,WeatherDisplay:10.37,2013-01-16 10:49:00,
2013-01-16 01:54:00,23.2,19.3,30.06,North,0,0.0,0.0,85,0.00,CLR,,0.00,WeatherDisplay:10.37,2013-01-16 10:54:00,
2013-01-16 01:59:00,23.0,19.2,30.06,NNW,338,0.0,0.0,85,0.00,CLR,,0.00,WeatherDisplay:10.37,2013-01-16 10:59:00,
2013-01-16 02:04:00,23.0,19.2,30.06,North,0,0.0,0.0,85,0.00,CLR,,0.00,WeatherDisplay:10.37,2013-01-16 11:04:00,
2013-01-16 02:09:00,22.8,19.0,30.06,NNW,338,0.0,0.0,85,0.00,CLR,,0.00,WeatherDisplay:10.37,2013-01-16 11:09:00,
2013-01-16 02:14:00,22.8,19.0,30.06,North,0,0.0,0.0,85,0.00,CLR,,0.00,WeatherDisplay:10.37,2013-01-16 11:14:00,
2013-01-16 02:19:00,22.8,19.3,30.06,NNW,338,0.0,0.0,86,0.00,CLR,,0.00,WeatherDisplay:10.37,2013-01-16 11:19:00,
2013-01-16 02:24:00,22.8,19.3,30.06,North,0,0.0,0.0,86,0.00,CLR,,0.00,WeatherDisplay:10.37,2013-01-16 11:24:00,
2013-01-16 02:29:00,22.8,19.3,30.06,NNW,338,0.0,0.0,86,0.00,CLR,,0.00,WeatherDisplay:10.37,2013-01-16 11:29:00,
2013-01-16 02:34:00,22.6,19.1,30.06,NNW,338,0.0,0.0,86,0.00,CLR,,0.00,WeatherDisplay:10.37,2013-01-16 11:34:00,
2013-01-16 02:39:00,22.5,18.9,30.06,North,0,0.0,0.0,86,0.00,CLR,,0.00,WeatherDisplay:10.37,2013-01-16 11:39:00,
2013-01-16 02:44:00,22.3,18.7,30.06,North,0,0.0,0.0,86,0.00,CLR,,0.00,WeatherDisplay:10.37,2013-01-16 11:44:00,
2013-01-16 02:49:00,22.3,18.7,30.06,NW,315,0.0,0.0,86,0.00,CLR,,0.00,WeatherDisplay:10.37,2013-01-16 11:49:00,
2013-01-16 02:54:00,22.1,18.6,30.06,NNW,338,0.0,0.0,86,0.00,CLR,,0.00,WeatherDisplay:10.37,2013-01-16 11:54:00,
2013-01-16 02:59:00,22.1,18.8,30.06,NNW,338,0.0,0.0,87,0.00,CLR,,0.00,WeatherDisplay:10.37,2013-01-16 11:59:00,
2013-01-16 03:04:00,21.9,18.6,30.06,WNW,292,0.0,0.0,87,0.00,CLR,,0.00,WeatherDisplay:10.37,2013-01-16 12:04:00,
2013-01-16 03:09:00,21.9,18.4,30.06,NNW,338,0.0,0.0,86,0.00,CLR,,0.00,WeatherDisplay:10.37,2013-01-16 12:09:00,
2013-01-16 03:14:00,21.9,18.4,30.06,NNW,338,1.6,0.0,86,0.00,CLR,,0.00,WeatherDisplay:10.37,2013-01-16 12:14:00,
2013-01-16 03:19:00,21.9,18.4,30.06,NNW,338,0.0,0.0,86,0.00,CLR,,0.00,WeatherDisplay:10.37,2013-01-16 12:19:00,
2013-01-16 03:24:00,21.7,18.2,30.06,North,0,0.0,0.0,86,0.00,CLR,,0.00,WeatherDisplay:10.37,2013-01-16 12:24:00,
2013-01-16 03:30:00,21.7,18.2,30.06,NNE,22,1.1,0.0,86,0.00,CLR,,0.00,WeatherDisplay:10.37,2013-01-16 12:30:00,
2013-01-16 03:34:00,21.9,18.6,30.03,NNE,22,2.3,2.3,87,0.00,CLR,,0.00,WeatherDisplay:10.37,2013-01-16 12:34:00,
2013-01-16 03:40:00,21.9,18.6,30.03,NNW,338,2.3,0.0,87,0.00,CLR,,0.00,WeatherDisplay:10.37,2013-01-16 12:40:00,
2013-01-16 03:45:00,22.1,18.8,30.03,NW,315,0.0,0.0,87,0.00,CLR,,0.00,WeatherDisplay:10.37,2013-01-16 12:45:00,
2013-01-16 03:50:00,22.3,19.0,30.03,NNE,22,0.0,0.0,87,0.00,CLR,,0.00,WeatherDisplay:10.37,2013-01-16 12:50:00,
2013-01-16 03:55:00,22.5,19.4,30.03,NNE,22,0.0,0.0,88,0.00,CLR,,0.00,WeatherDisplay:10.37,2013-01-16 12:55:00,
2013-01-16 04:00:00,22.5,19.4,30.03,NE,45,0.0,0.0,88,0.00,CLR,,0.00,WeatherDisplay:10.37,2013-01-16 13:00:00,
2013-01-16 04:05:00,22.6,19.4,30.03,ENE,68,0.0,0.0,87,0.00,CLR,,0.00,WeatherDisplay:10.37,2013-01-16 13:05:00,
2013-01-16 04:10:00,22.6,19.4,30.03,NNE,22,0.0,0.0,87,0.00,CLR,,0.00,WeatherDisplay:10.37,2013-01-16 13:10:00,
2013-01-16 04:15:00,22.6,19.4,30.03,NNE,22,0.0,0.0,87,0.00,CLR,,0.00,WeatherDisplay:10.37,2013-01-16 13:15:00,
2013-01-16 04:20:00,22.6,19.1,30.03,NNW,338,0.0,0.0,86,0.00,CLR,,0.00,WeatherDisplay:10.37,2013-01-16 13:20:00,
2013-01-16 04:25:00,22.6,19.1,30.03,NNW,338,0.0,0.0,86,0.00,CLR,,0.00,WeatherDisplay:10.37,2013-01-16 13:25:00,
2013-01-16 04:30:00,22.6,19.1,30.03,NNW,338,0.0,0.0,86,0.00,CLR,,0.00,WeatherDisplay:10.37,2013-01-16 13:30:00,
2013-01-16 04:35:00,22.5,18.9,30.03,NW,315,0.0,0.0,86,0.00,CLR,,0.00,WeatherDisplay:10.37,2013-01-16 13:35:00,
2013-01-16 04:40:00,22.5,18.9,30.03,NE,45,0.0,0.0,86,0.00,CLR,,0.00,WeatherDisplay:10.37,2013-01-16 13:40:00,
2013-01-16 04:45:00,22.5,18.9,30.03,NNW,338,0.0,0.0,86,0.00,CLR,,0.00,WeatherDisplay:10.37,2013-01-16 13:45:00,
2013-01-16 04:50:00,22.3,18.7,30.00,North,0,0.0,0.0,86,0.00,CLR,,0.00,WeatherDisplay:10.37,2013-01-16 13:50:00,
2013-01-16 04:55:00,22.3,18.7,30.00,NNW,338,1.6,1.6,86,0.00,CLR,,0.00,WeatherDisplay:10.37,2013-01-16 13:55:00,
2013-01-16 05:00:00,22.3,19.0,30.00,NNW,338,2.9,2.9,87,0.00,CLR,,0.00,WeatherDisplay:10.37,2013-01-16 14:00:00,
2013-01-16 05:05:00,22.3,19.3,30.00,North,0,2.3,2.3,88,0.00,CLR,,0.00,WeatherDisplay:10.37,2013-01-16 14:05:00,
2013-01-16 05:10:00,22.5,19.4,30.00,North,0,2.3,2.3,88,0.00,CLR,,0.00,WeatherDisplay:10.37,2013-01-16 14:10:00,
2013-01-16 05:15:00,22.5,19.7,30.00,North,0,0.0,0.0,89,0.00,CLR,,0.00,WeatherDisplay:10.37,2013-01-16 14:15:00,
2013-01-16 05:20:00,22.6,19.9,29.97,North,0,0.0,0.0,89,0.00,CLR,,0.00,WeatherDisplay:10.37,2013-01-16 14:20:00,
2013-01-16 05:25:00,22.6,19.9,29.97,NNW,338,0.0,0.0,89,0.00,CLR,,0.00,WeatherDisplay:10.37,2013-01-16 14:25:00,
2013-01-16 05:30:00,22.6,20.1,29.97,NNW,338,1.1,1.1,90,0.00,CLR,,0.00,WeatherDisplay:10.37,2013-01-16 14:30:00,
2013-01-16 05:35:00,22.8,20.6,29.97,North,0,4.6,4.6,91,0.00,CLR,,0.00,WeatherDisplay:10.37,2013-01-16 14:35:00,
2013-01-16 05:40:00,22.8,20.6,29.97,NNW,338,3.1,3.1,91,0.00,CLR,,0.00,WeatherDisplay:10.37,2013-01-16 14:40:00,
2013-01-16 05:45:00,22.6,20.1,29.97,North,0,3.5,3.5,90,0.00,CLR,,0.00,WeatherDisplay:10.37,2013-01-16 14:45:00,
2013-01-16 05:50:00,22.5,19.2,29.97,NNE,22,2.6,2.6,87,0.00,CLR,,0.00,WeatherDisplay:10.37,2013-01-16 14:50:00,
2013-01-16 05:55:00,21.9,17.5,29.97,NNW,338,3.3,3.3,83,0.00,CLR,,0.00,WeatherDisplay:10.37,2013-01-16 14:55:00,
2013-01-16 06:00:00,21.6,16.9,29.97,North,0,2.3,2.3,82,0.00,CLR,,0.00,WeatherDisplay:10.37,2013-01-16 15:00:00,
2013-01-16 06:05:00,21.2,16.3,29.97,North,0,3.8,3.8,81,0.00,CLR,,0.00,WeatherDisplay:10.37,2013-01-16 15:05:00,
2013-01-16 06:10:00,21.0,16.1,29.97,NNE,22,2.6,2.6,81,0.00,CLR,,0.00,WeatherDisplay:10.37,2013-01-16 15:10:00,
2013-01-16 06:15:00,20.8,16.2,29.97,NNW,338,3.5,0.0,82,0.00,CLR,,0.00,WeatherDisplay:10.37,2013-01-16 15:15:00,
2013-01-16 06:20:00,20.8,16.2,29.94,North,0,0.0,0.0,82,0.00,CLR,,0.00,WeatherDisplay:10.37,2013-01-16 15:20:00,
2013-01-16 06:25:00,20.8,16.2,29.94,NNE,22,0.0,0.0,82,0.00,CLR,,0.00,WeatherDisplay:10.37,2013-01-16 15:25:00,
2013-01-16 06:30:00,20.8,16.2,29.94,North,0,0.0,0.0,82,0.00,CLR,,0.00,WeatherDisplay:10.37,2013-01-16 15:30:00,
2013-01-16 06:35:00,21.2,17.1,29.94,NNW,338,0.0,0.0,84,0.00,CLR,,0.00,WeatherDisplay:10.37,2013-01-16 15:35:00,
2013-01-16 06:40:00,21.2,17.1,29.94,NNW,338,2.3,0.0,84,0.00,CLR,,0.00,WeatherDisplay:10.37,2013-01-16 15:40:00,
2013-01-16 06:45:00,21.4,17.3,29.94,NNW,338,2.2,2.2,84,0.00,CLR,,0.00,WeatherDisplay:10.37,2013-01-16 15:45:00,
2013-01-16 06:50:00,21.6,17.2,29.94,North,0,3.3,3.3,83,0.00,CLR,,0.00,WeatherDisplay:10.37,2013-01-16 15:50:00,
2013-01-16 06:55:00,21.7,17.1,29.94,NNE,22,3.5,3.5,82,0.00,CLR,,0.00,WeatherDisplay:10.37,2013-01-16 15:55:00,
2013-01-16 07:00:00,21.7,16.8,29.94,NNW,338,3.6,3.6,81,0.00,CLR,,0.00,WeatherDisplay:10.37,2013-01-16 16:00:00,
2013-01-16 07:05:00,21.9,17.0,29.94,NE,45,1.1,1.1,81,0.00,CLR,,0.00,WeatherDisplay:10.37,2013-01-16 16:05:00,
2013-01-16 07:10:00,21.9,17.0,29.94,NNW,338,0.0,0.0,81,0.00,CLR,,0.00,WeatherDisplay:10.37,2013-01-16 16:10:00,
2013-01-16 07:15:00,21.9,17.0,29.94,NNE,22,2.6,2.6,81,0.00,CLR,,0.00,WeatherDisplay:10.37,2013-01-16 16:15:00,
2013-01-16 07:20:00,21.9,16.7,29.91,North,0,3.5,3.5,80,0.00,CLR,,0.00,WeatherDisplay:10.37,2013-01-16 16:20:00,
2013-01-16 07:25:00,21.7,16.5,29.91,NNW,338,2.6,2.6,80,0.00,CLR,,0.00,WeatherDisplay:10.37,2013-01-16 16:25:00,
2013-01-16 07:30:00,21.7,16.8,29.91,NNE,22,3.5,3.5,81,0.00,CLR,,0.00,WeatherDisplay:10.37,2013-01-16 16:30:00,
2013-01-16 07:35:00,21.7,16.8,29.91,NNE,22,3.5,3.5,81,0.00,CLR,,0.00,WeatherDisplay:10.37,2013-01-16 16:35:00,
2013-01-16 07:40:00,21.9,17.0,29.91,NW,315,4.6,4.6,81,0.00,CLR,,0.00,WeatherDisplay:10.37,2013-01-16 16:40:00,
2013-01-16 07:45:00,21.9,17.0,29.91,NNW,338,3.5,3.5,81,0.00,CLR,,0.00,WeatherDisplay:10.37,2013-01-16 16:45:00,
2013-01-16 07:50:00,21.9,16.7,29.91,NNE,22,3.6,3.6,80,0.00,CLR,,0.00,WeatherDisplay:10.37,2013-01-16 16:50:00,
2013-01-16 07:55:00,21.9,16.7,29.91,NNW,338,3.6,3.6,80,0.00,CLR,,0.00,WeatherDisplay:10.37,2013-01-16 16:55:00,
2013-01-16 08:00:00,21.9,16.7,29.91,North,0,1.1,0.0,80,0.00,CLR,,0.00,WeatherDisplay:10.37,2013-01-16 17:00:00,
2013-01-16 08:05:00,21.9,16.7,29.91,NNW,338,1.6,0.0,80,0.00,CLR,,0.00,WeatherDisplay:10.37,2013-01-16 17:05:00,
2013-01-16 08:10:00,21.7,16.2,29.91,North,0,2.9,2.9,79,0.00,CLR,,0.00,WeatherDisplay:10.37,2013-01-16 17:10:00,
2013-01-16 08:15:00,21.7,15.9,29.91,NNW,338,0.0,0.0,78,0.00,CLR,,0.00,WeatherDisplay:10.37,2013-01-16 17:15:00,
2013-01-16 08:20:00,21.7,15.9,29.88,NNW,338,1.4,0.0,78,0.00,CLR,,0.00,WeatherDisplay:10.37,2013-01-16 17:20:00,
2013-01-16 08:25:00,21.7,16.2,29.88,NNW,338,0.0,0.0,79,0.00,CLR,,0.00,WeatherDisplay:10.37,2013-01-16 17:25:00,
2013-01-16 08:30:00,21.7,16.2,29.88,North,0,1.1,0.0,79,0.00,CLR,,0.00,WeatherDisplay:10.37,2013-01-16 17:30:00,
2013-01-16 08:35:00,21.7,16.2,29.88,WNW,292,0.0,0.0,79,0.00,CLR,,0.00,WeatherDisplay:10.37,2013-01-16 17:35:00,
2013-01-16 08:40:00,21.7,16.2,29.88,WNW,292,0.0,0.0,79,0.00,CLR,,0.00,WeatherDisplay:10.37,2013-01-16 17:40:00,
2013-01-16 08:45:00,21.7,16.2,29.88,North,0,1.1,0.0,79,0.00,CLR,,0.00,WeatherDisplay:10.37,2013-01-16 17:45:00,
2013-01-16 08:50:00,21.7,16.2,29.91,NNW,338,0.0,0.0,79,0.00,CLR,,0.00,WeatherDisplay:10.37,2013-01-16 17:50:00,
2013-01-16 08:55:00,21.6,16.3,29.91,WNW,292,0.0,0.0,80,0.00,CLR,,0.00,WeatherDisplay:10.37,2013-01-16 17:55:00,
2013-01-16 09:00:00,21.6,16.1,29.91,NNW,338,3.5,3.5,79,0.00,CLR,,0.00,WeatherDisplay:10.37,2013-01-16 18:00:00,
2013-01-16 09:05:00,21.4,15.9,29.88,NNW,338,2.9,2.9,79,0.00,CLR,,0.00,WeatherDisplay:10.37,2013-01-16 18:05:00,
2013-01-16 09:10:00,21.4,16.2,29.88,NNW,338,2.3,2.3,80,0.00,CLR,,0.00,WeatherDisplay:10.37,2013-01-16 18:10:00,
2013-01-16 09:15:00,21.4,16.2,29.88,NNW,338,1.1,0.0,80,0.00,CLR,,0.00,WeatherDisplay:10.37,2013-01-16 18:15:00,
2013-01-16 09:20:00,21.4,16.2,29.88,WNW,292,0.0,0.0,80,0.00,CLR,,0.00,WeatherDisplay:10.37,2013-01-16 18:20:00,
2013-01-16 09:25:00,21.4,16.2,29.88,NW,315,0.0,0.0,80,0.00,CLR,,0.00,WeatherDisplay:10.37,2013-01-16 18:25:00,
2013-01-16 09:30:00,21.4,16.2,29.88,North,0,0.0,0.0,80,0.00,CLR,,0.00,WeatherDisplay:10.37,2013-01-16 18:30:00,
2013-01-16 09:35:00,21.2,16.3,29.88,NNW,338,0.0,0.0,81,0.00,CLR,,0.00,WeatherDisplay:10.37,2013-01-16 18:35:00,
2013-01-16 09:41:00,21.4,16.2,29.88,NW,315,0.0,0.0,80,0.00,CLR,,0.00,WeatherDisplay:10.37,2013-01-16 18:41:00,
2013-01-16 09:46:00,21.4,16.5,29.88,NW,315,0.9,0.0,81,0.00,CLR,,0.00,WeatherDisplay:10.37,2013-01-16 18:46:00,
2013-01-16 09:51:00,21.6,16.9,29.88,WNW,292,0.0,0.0,82,0.00,CLR,,0.00,WeatherDisplay:10.37,2013-01-16 18:51:00,
2013-01-16 09:56:00,21.6,17.2,29.88,North,0,2.4,2.4,83,0.00,CLR,,0.00,WeatherDisplay:10.37,2013-01-16 18:56:00,
2013-01-16 10:01:00,21.7,17.7,29.88,NNE,22,3.5,0.0,84,0.00,CLR,,0.00,WeatherDisplay:10.37,2013-01-16 19:01:00,
2013-01-16 10:06:00,21.7,17.9,29.88,North,0,2.9,2.9,85,0.00,CLR,,0.00,WeatherDisplay:10.37,2013-01-16 19:06:00,
2013-01-16 10:11:00,21.6,18.0,29.88,NNE,22,3.5,3.5,86,0.00,CLR,,0.00,WeatherDisplay:10.37,2013-01-16 19:11:00,
2013-01-16 10:16:00,21.4,18.1,29.88,North,0,4.3,4.3,87,0.00,CLR,,0.00,WeatherDisplay:10.37,2013-01-16 19:16:00,
2013-01-16 10:21:00,21.4,18.4,29.88,NW,315,3.1,3.1,88,0.00,CLR,,0.00,WeatherDisplay:10.37,2013-01-16 19:21:00,
2013-01-16 10:26:00,21.2,18.7,29.88,North,0,4.6,4.6,90,0.00,CLR,,0.00,WeatherDisplay:10.37,2013-01-16 19:26:00,
2013-01-16 10:31:00,21.2,18.7,29.88,NNW,338,3.8,3.8,90,0.00,CLR,,0.00,WeatherDisplay:10.37,2013-01-16 19:31:00,
2013-01-16 10:36:00,21.2,19.0,29.85,NNE,22,3.5,3.5,91,0.00,CLR,,0.00,WeatherDisplay:10.37,2013-01-16 19:36:00,
2013-01-16 10:41:00,21.2,19.0,29.85,North,0,2.0,2.0,91,0.00,CLR,,0.00,WeatherDisplay:10.37,2013-01-16 19:41:00,
2013-01-16 10:46:00,21.2,19.2,29.85,NNW,338,2.4,0.0,92,0.00,CLR,,0.00,WeatherDisplay:10.37,2013-01-16 19:46:00,
2013-01-16 10:51:00,21.4,19.4,29.85,NNE,22,0.0,0.0,92,0.00,CLR,,0.00,WeatherDisplay:10.37,2013-01-16 19:51:00,
2013-01-16 10:56:00,21.6,19.9,29.85,North,0,1.4,0.0,93,0.00,CLR,,0.00,WeatherDisplay:10.37,2013-01-16 19:56:00,
2013-01-16 11:01:00,21.6,20.1,29.85,NNW,338,2.3,2.3,94,0.00,CLR,,0.00,WeatherDisplay:10.37,2013-01-16 20:01:00,
2013-01-16 11:06:00,21.7,20.3,29.85,NNW,338,0.0,0.0,94,0.00,CLR,,0.00,WeatherDisplay:10.37,2013-01-16 20:06:00,
2013-01-16 11:11:00,21.7,20.3,29.85,NNE,22,3.6,3.6,94,0.00,CLR,,0.00,WeatherDisplay:10.37,2013-01-16 20:11:00,
2013-01-16 11:16:00,21.7,19.8,29.85,NNE,22,2.3,2.3,92,0.00,CLR,,0.00,WeatherDisplay:10.37,2013-01-16 20:16:00,
2013-01-16 11:21:00,21.7,19.5,29.85,NNW,338,2.9,2.9,91,0.00,CLR,,0.00,WeatherDisplay:10.37,2013-01-16 20:21:00,
2013-01-16 11:26:00,21.7,19.5,29.85,North,0,1.1,1.1,91,0.00,CLR,,0.00,WeatherDisplay:10.37,2013-01-16 20:26:00,
2013-01-16 11:31:00,21.9,19.7,29.85,North,0,2.9,2.9,91,0.00,CLR,,0.00,WeatherDisplay:10.37,2013-01-16 20:31:00,
2013-01-16 11:36:00,21.9,19.7,29.85,NNE,22,1.6,1.6,91,0.00,CLR,,0.00,WeatherDisplay:10.37,2013-01-16 20:36:00,
2013-01-16 11:41:00,21.9,19.7,29.85,NE,45,2.3,2.3,91,0.00,CLR,,0.00,WeatherDisplay:10.37,2013-01-16 20:41:00,
2013-01-16 11:46:00,21.9,19.7,29.85,NNW,338,3.5,3.5,91,0.00,CLR,,0.00,WeatherDisplay:10.37,2013-01-16 20:46:00,
2013-01-16 11:51:00,21.9,19.7,29.83,North,0,5.9,5.9,91,0.00,CLR,,0.00,WeatherDisplay:10.37,2013-01-16 20:51:00,
2013-01-16 11:56:00,21.9,19.4,29.83,North,0,5.4,5.4,90,0.00,CLR,,0.00,WeatherDisplay:10.37,2013-01-16 20:56:00,
2013-01-16 12:01:00,21.9,19.7,29.83,North,0,3.8,3.8,91,0.00,CLR,,0.00,WeatherDisplay:10.37,2013-01-16 21:01:00,
2013-01-16 12:06:00,21.9,19.7,29.83,NNW,338,3.8,3.8,91,0.00,CLR,,0.00,WeatherDisplay:10.37,2013-01-16 21:06:00,
2013-01-16 12:11:00,22.1,19.9,29.83,North,0,2.3,2.3,91,0.00,CLR,,0.00,WeatherDisplay:10.37,2013-01-16 21:11:00,
2013-01-16 12:16:00,22.1,19.9,29.83,NNE,22,3.5,3.5,91,0.00,CLR,,0.00,WeatherDisplay:10.37,2013-01-16 21:16:00,
2013-01-16 12:21:00,22.1,19.9,29.83,NNW,338,3.5,3.5,91,0.00,CLR,,0.00,WeatherDisplay:10.37,2013-01-16 21:21:00,
2013-01-16 12:26:00,21.9,19.7,29.83,NNW,338,3.8,3.8,91,0.00,CLR,,0.00,WeatherDisplay:10.37,2013-01-16 21:26:00,
2013-01-16 12:31:00,21.9,19.7,29.83,NNW,338,3.6,3.6,91,0.00,CLR,,0.00,WeatherDisplay:10.37,2013-01-16 21:31:00,
2013-01-16 12:36:00,22.1,19.9,29.83,North,0,3.5,3.5,91,0.00,CLR,,0.00,WeatherDisplay:10.37,2013-01-16 21:36:00,
2013-01-16 12:41:00,22.1,19.9,29.83,NNW,338,2.9,2.9,91,0.00,CLR,,0.00,WeatherDisplay:10.37,2013-01-16 21:41:00,
2013-01-16 12:46:00,22.1,19.9,29.83,NNW,338,3.5,3.5,91,0.00,CLR,,0.00,WeatherDisplay:10.37,2013-01-16 21:46:00,
2013-01-16 12:51:00,22.1,19.9,29.83,NNW,338,1.1,0.0,91,0.00,CLR,,0.00,WeatherDisplay:10.37,2013-01-16 21:51:00,
2013-01-16 12:56:00,22.1,19.9,29.83,NNW,338,0.0,0.0,91,0.00,CLR,,0.00,WeatherDisplay:10.37,2013-01-16 21:56:00,
2013-01-16 13:01:00,22.3,20.1,29.83,NNE,22,0.0,0.0,91,0.00,CLR,,0.00,WeatherDisplay:10.37,2013-01-16 22:01:00,
2013-01-16 13:06:00,22.3,20.3,29.80,NW,315,0.0,0.0,92,0.00,CLR,,0.00,WeatherDisplay:10.37,2013-01-16 22:06:00,
2013-01-16 13:11:00,22.3,20.3,29.80,NNE,22,0.0,0.0,92,0.00,CLR,,0.00,WeatherDisplay:10.37,2013-01-16 22:11:00,
2013-01-16 13:16:00,22.3,20.3,29.80,North,0,0.0,0.0,92,0.00,CLR,,0.00,WeatherDisplay:10.37,2013-01-16 22:16:00,
2013-01-16 13:21:00,22.5,20.5,29.80,NNW,338,0.0,0.0,92,0.00,CLR,,0.00,WeatherDisplay:10.37,2013-01-16 22:21:00,
2013-01-16 13:26:00,22.5,20.5,29.80,NNW,338,0.0,0.0,92,0.00,CLR,,0.00,WeatherDisplay:10.37,2013-01-16 22:26:00,
2013-01-16 13:31:00,22.5,20.5,29.80,NNW,338,0.0,0.0,92,0.00,CLR,,0.00,WeatherDisplay:10.37,2013-01-16 22:31:00,
2013-01-16 13:36:00,22.5,20.5,29.80,NNW,338,0.0,0.0,92,0.00,CLR,,0.00,WeatherDisplay:10.37,2013-01-16 22:36:00,
2013-01-16 13:41:00,22.5,20.5,29.80,North,0,0.0,0.0,92,0.00,CLR,,0.00,WeatherDisplay:10.37,2013-01-16 22:41:00,
2013-01-16 13:46:00,22.5,20.5,29.80,NNW,338,0.0,0.0,92,0.00,CLR,,0.00,WeatherDisplay:10.37,2013-01-16 22:46:00,
2013-01-16 13:51:00,22.5,20.2,29.80,NNW,338,0.0,0.0,91,0.00,CLR,,0.00,WeatherDisplay:10.37,2013-01-16 22:51:00,
2013-01-16 13:56:00,22.5,20.2,29.80,NNW,338,0.0,0.0,91,0.00,CLR,,0.00,WeatherDisplay:10.37,2013-01-16 22:56:00,
2013-01-16 14:01:00,22.3,20.1,29.80,North,0,0.0,0.0,91,0.00,CLR,,0.00,WeatherDisplay:10.37,2013-01-16 23:01:00,
2013-01-16 14:06:00,22.3,20.1,29.80,NNW,338,0.0,0.0,91,0.00,CLR,,0.00,WeatherDisplay:10.37,2013-01-16 23:06:00,
2013-01-16 14:11:00,22.3,20.3,29.80,NNW,338,0.0,0.0,92,0.00,CLR,,0.00,WeatherDisplay:10.37,2013-01-16 23:11:00,
2013-01-16 14:16:00,22.5,20.5,29.80,North,0,0.0,0.0,92,0.00,CLR,,0.00,WeatherDisplay:10.37,2013-01-16 23:16:00,
2013-01-16 14:21:00,22.5,20.5,29.77,NNW,338,0.0,0.0,92,0.00,CLR,,0.00,WeatherDisplay:10.37,2013-01-16 23:21:00,
2013-01-16 14:26:00,22.6,20.7,29.77,NNW,338,0.0,0.0,92,0.00,CLR,,0.00,WeatherDisplay:10.37,2013-01-16 23:26:00,
2013-01-16 14:32:00,22.6,20.9,29.77,North,0,0.0,0.0,93,0.00,CLR,,0.00,WeatherDisplay:10.37,2013-01-16 23:32:00,
2013-01-16 14:37:00,22.6,20.9,29.77,NE,45,0.0,0.0,93,0.00,CLR,,0.00,WeatherDisplay:10.37,2013-01-16 23:37:00,
2013-01-16 14:42:00,22.6,20.9,29.77,NNW,338,0.0,0.0,93,0.00,CLR,,0.00,WeatherDisplay:10.37,2013-01-16 23:42:00,
2013-01-16 14:47:00,22.8,21.1,29.77,North,0,0.0,0.0,93,0.00,CLR,,0.00,WeatherDisplay:10.37,2013-01-16 23:47:00,
2013-01-16 14:52:00,22.8,21.4,29.77,North,0,0.0,0.0,94,0.00,CLR,,0.00,WeatherDisplay:10.37,2013-01-16 23:52:00,
2013-01-16 14:57:00,22.8,21.4,29.77,North,0,1.1,0.0,94,0.00,CLR,,0.00,WeatherDisplay:10.37,2013-01-16 23:57:00,
2013-01-16 15:02:00,22.8,21.4,29.77,NNW,338,0.0,0.0,94,0.00,CLR,,0.00,WeatherDisplay:10.37,2013-01-17 00:02:00,
2013-01-16 15:07:00,22.8,21.4,29.77,NNE,22,0.0,0.0,94,0.00,CLR,,0.00,WeatherDisplay:10.37,2013-01-17 00:07:00,
2013-01-16 15:12:00,23.0,21.3,29.77,North,0,0.0,0.0,93,0.00,CLR,,0.00,WeatherDisplay:10.37,2013-01-17 00:12:00,
2013-01-16 15:17:00,23.0,21.3,29.77,North,0,0.0,0.0,93,0.00,CLR,,0.00,WeatherDisplay:10.37,2013-01-17 00:17:00,
2013-01-16 15:22:00,22.8,20.8,29.77,NNW,338,0.0,0.0,92,0.00,CLR,,0.00,WeatherDisplay:10.37,2013-01-17 00:22:00,
2013-01-16 15:27:00,22.8,20.8,29.77,North,0,0.0,0.0,92,0.00,CLR,,0.00,WeatherDisplay:10.37,2013-01-17 00:27:00,
2013-01-16 15:32:00,22.6,20.7,29.77,NNW,338,0.0,0.0,92,0.00,CLR,,0.00,WeatherDisplay:10.37,2013-01-17 00:32:00,
2013-01-16 15:37:00,22.6,20.7,29.77,NNW,338,1.4,0.0,92,0.00,CLR,,0.00,WeatherDisplay:10.37,2013-01-17 00:37:00,
2013-01-16 15:42:00,22.6,20.7,29.77,NNE,22,0.0,0.0,92,0.00,CLR,,0.00,WeatherDisplay:10.37,2013-01-17 00:42:00,
2013-01-16 15:47:00,22.6,20.7,29.77,NNW,338,0.0,0.0,92,0.00,CLR,,0.00,WeatherDisplay:10.37,2013-01-17 00:47:00,
2013-01-16 15:52:00,22.6,20.7,29.74,NNW,338,0.0,0.0,92,0.00,CLR,,0.00,WeatherDisplay:10.37,2013-01-17 00:52:00,
2013-01-16 15:57:00,22.6,20.7,29.74,NNE,22,0.0,0.0,92,0.00,CLR,,0.00,WeatherDisplay:10.37,2013-01-17 00:57:00,
2013-01-16 16:02:00,22.6,20.7,29.74,North,0,0.0,0.0,92,0.00,CLR,,0.00,WeatherDisplay:10.37,2013-01-17 01:02:00,
2013-01-16 16:07:00,22.5,20.5,29.74,NNW,338,0.0,0.0,92,0.00,CLR,,0.00,WeatherDisplay:10.37,2013-01-17 01:07:00,
2013-01-16 16:12:00,22.5,20.5,29.74,NNW,338,0.0,0.0,92,0.00,CLR,,0.00,WeatherDisplay:10.37,2013-01-17 01:12:00,
2013-01-16 16:17:00,22.3,20.3,29.74,NNW,338,0.0,0.0,92,0.00,CLR,,0.00,WeatherDisplay:10.37,2013-01-17 01:17:00,
2013-01-16 16:22:00,22.3,20.1,29.74,NNW,338,0.0,0.0,91,0.00,CLR,,0.00,WeatherDisplay:10.37,2013-01-17 01:22:00,
2013-01-16 16:27:00,22.3,20.3,29.74,NNW,338,0.0,0.0,92,0.00,CLR,,0.00,WeatherDisplay:10.37,2013-01-17 01:27:00,
2013-01-16 16:32:00,22.1,20.1,29.74,NNW,338,0.0,0.0,92,0.00,CLR,,0.00,WeatherDisplay:10.37,2013-01-17 01:32:00,
2013-01-16 16:37:00,22.1,20.1,29.74,NNW,338,0.0,0.0,92,0.00,CLR,,0.00,WeatherDisplay:10.37,2013-01-17 01:37:00,
2013-01-16 16:42:00,22.1,20.1,29.74,NNW,338,0.0,0.0,92,0.00,CLR,,0.00,WeatherDisplay:10.37,2013-01-17 01:42:00,
2013-01-16 16:47:00,22.3,20.6,29.74,NNE,22,0.0,0.0,93,0.00,CLR,,0.00,WeatherDisplay:10.37,2013-01-17 01:47:00,
2013-01-16 16:52:00,22.3,20.6,29.74,NNW,338,0.0,0.0,93,0.00,CLR,,0.00,WeatherDisplay:10.37,2013-01-17 01:52:00,
2013-01-16 16:57:00,22.3,20.8,29.74,NNW,338,0.0,0.0,94,0.00,CLR,,0.00,WeatherDisplay:10.37,2013-01-17 01:57:00,
2013-01-16 17:02:00,22.1,20.6,29.74,NNW,338,0.0,0.0,94,0.00,CLR,,0.00,WeatherDisplay:10.37,2013-01-17 02:02:00,
2013-01-16 17:07:00,22.1,20.6,29.71,NNW,338,0.0,0.0,94,0.00,CLR,,0.00,WeatherDisplay:10.37,2013-01-17 02:07:00,
2013-01-16 17:12:00,21.9,20.5,29.71,NNW,338,0.0,0.0,94,0.00,CLR,,0.00,WeatherDisplay:10.37,2013-01-17 02:12:00,
2013-01-16 17:17:00,21.9,20.2,29.71,NNW,338,0.0,0.0,93,0.00,CLR,,0.00,WeatherDisplay:10.37,2013-01-17 02:17:00,
2013-01-16 17:22:00,21.9,20.2,29.71,North,0,0.0,0.0,93,0.00,CLR,,0.00,WeatherDisplay:10.37,2013-01-17 02:22:00,
2013-01-16 17:27:00,21.9,20.5,29.71,NNW,338,0.0,0.0,94,0.00,CLR,,0.00,WeatherDisplay:10.37,2013-01-17 02:27:00,
2013-01-16 17:32:00,21.9,20.5,29.71,NNW,338,0.0,0.0,94,0.00,CLR,,0.00,WeatherDisplay:10.37,2013-01-17 02:32:00,
2013-01-16 17:37:00,21.9,20.2,29.71,NNW,338,0.0,0.0,93,0.00,CLR,,0.00,WeatherDisplay:10.37,2013-01-17 02:37:00,
2013-01-16 17:42:00,21.9,20.2,29.71,NNW,338,0.0,0.0,93,0.00,CLR,,0.00,WeatherDisplay:10.37,2013-01-17 02:42:00,
2013-01-16 17:47:00,21.9,20.2,29.71,NNW,338,0.0,0.0,93,0.00,CLR,,0.00,WeatherDisplay:10.37,2013-01-17 02:47:00,
2013-01-16 17:52:00,22.1,20.4,29.71,NNW,338,0.0,0.0,93,0.00,CLR,,0.00,WeatherDisplay:10.37,2013-01-17 02:52:00,
2013-01-16 17:57:00,22.1,20.4,29.71,NNW,338,0.0,0.0,93,0.00,CLR,,0.00,WeatherDisplay:10.37,2013-01-17 02:57:00,
2013-01-16 18:02:00,22.1,20.4,29.71,NNW,338,0.0,0.0,93,0.00,CLR,,0.00,WeatherDisplay:10.37,2013-01-17 03:02:00,
2013-01-16 18:07:00,22.1,20.4,29.71,NNW,338,0.0,0.0,93,0.00,CLR,,0.00,WeatherDisplay:10.37,2013-01-17 03:07:00,
2013-01-16 18:12:00,22.1,20.1,29.71,NNW,338,0.0,0.0,92,0.00,CLR,,0.00,WeatherDisplay:10.37,2013-01-17 03:12:00,
2013-01-16 18:17:00,22.1,20.1,29.71,NNW,338,0.0,0.0,92,0.00,CLR,,0.00,WeatherDisplay:10.37,2013-01-17 03:17:00,
2013-01-16 18:22:00,22.1,20.1,29.68,NNW,338,0.0,0.0,92,0.00,CLR,,0.00,WeatherDisplay:10.37,2013-01-17 03:22:00,
2013-01-16 18:27:00,22.1,20.1,29.68,NNW,338,0.0,0.0,92,0.00,CLR,,0.00,WeatherDisplay:10.37,2013-01-17 03:27:00,
2013-01-16 18:32:00,22.3,20.3,29.68,NNW,338,0.0,0.0,92,0.00,CLR,,0.00,WeatherDisplay:10.37,2013-01-17 03:32:00,
2013-01-16 18:37:00,22.1,20.4,29.68,NNW,338,0.0,0.0,93,0.00,CLR,,0.00,WeatherDisplay:10.37,2013-01-17 03:37:00,
2013-01-16 18:42:00,22.1,20.4,29.68,NNW,338,0.0,0.0,93,0.00,CLR,,0.00,WeatherDisplay:10.37,2013-01-17 03:42:00,
2013-01-16 18:47:00,22.1,20.4,29.68,ENE,68,0.0,0.0,93,0.00,CLR,,0.00,WeatherDisplay:10.37,2013-01-17 03:47:00,
2013-01-16 18:52:00,22.1,20.4,29.68,ENE,68,0.0,0.0,93,0.00,CLR,,0.00,WeatherDisplay:10.37,2013-01-17 03:52:00,
2013-01-16 18:57:00,21.9,20.2,29.68,ENE,68,0.0,0.0,93,0.00,CLR,,0.00,WeatherDisplay:10.37,2013-01-17 03:57:00,
2013-01-16 19:02:00,21.9,20.2,29.68,ENE,68,0.0,0.0,93,0.00,CLR,,0.00,WeatherDisplay:10.37,2013-01-17 04:02:00,
2013-01-16 19:07:00,21.9,20.2,29.68,ENE,68,0.0,0.0,93,0.00,CLR,,0.00,WeatherDisplay:10.37,2013-01-17 04:07:00,
2013-01-16 19:12:00,21.9,20.2,29.68,ENE,68,0.0,0.0,93,0.00,CLR,,0.00,WeatherDisplay:10.37,2013-01-17 04:12:00,
2013-01-16 19:17:00,22.1,20.4,29.68,ENE,68,0.0,0.0,93,0.00,CLR,,0.00,WeatherDisplay:10.37,2013-01-17 04:17:00,
2013-01-16 19:22:00,22.1,20.4,29.68,ENE,68,0.0,0.0,93,0.00,CLR,,0.00,WeatherDisplay:10.37,2013-01-17 04:22:00,
2013-01-16 19:27:00,22.1,20.4,29.68,ENE,68,0.0,0.0,93,0.00,CLR,,0.00,WeatherDisplay:10.37,2013-01-17 04:27:00,
2013-01-16 19:32:00,22.1,20.4,29.68,ENE,68,0.0,0.0,93,0.00,CLR,,0.00,WeatherDisplay:10.37,2013-01-17 04:32:00,
2013-01-16 19:37:00,22.1,20.4,29.68,ENE,68,0.0,0.0,93,0.00,CLR,,0.00,WeatherDisplay:10.37,2013-01-17 04:37:00,
2013-01-16 19:42:00,22.1,20.4,29.68,ENE,68,0.0,0.0,93,0.00,CLR,,0.00,WeatherDisplay:10.37,2013-01-17 04:42:00,
2013-01-16 19:47:00,22.1,20.4,29.68,ENE,68,0.0,0.0,93,0.00,CLR,,0.00,WeatherDisplay:10.37,2013-01-17 04:47:00,
2013-01-16 19:52:00,22.3,20.6,29.68,ENE,68,0.0,0.0,93,0.00,CLR,,0.00,WeatherDisplay:10.37,2013-01-17 04:52:00,
2013-01-16 19:57:00,22.3,20.6,29.68,ENE,68,0.0,0.0,93,0.00,CLR,,0.00,WeatherDisplay:10.37,2013-01-17 04:57:00,
2013-01-16 20:00:00,22.3,20.6,29.68,ENE,68,0.0,0.0,93,0.00,CLR,,0.00,WeatherDisplay:10.37,2013-01-17 05:00:00,
2013-01-16 20:01:00,22.3,20.6,29.68,ENE,68,0.0,0.0,93,0.00,CLR,,0.00,WeatherDisplay:10.37,2013-01-17 05:01:00,
2013-01-16 20:03:00,22.3,20.6,29.68,ENE,68,0.0,0.0,93,0.00,CLR,,0.00,WeatherDisplay:10.37,2013-01-17 05:03:00,
2013-01-16 20:08:00,22.3,20.3,29.65,ENE,68,0.0,0.0,92,0.00,CLR,,0.00,WeatherDisplay:10.37,2013-01-17 05:08:00,
2013-01-16 20:13:00,22.3,20.3,29.65,ENE,68,0.0,0.0,92,0.00,CLR,,0.00,WeatherDisplay:10.37,2013-01-17 05:13:00,
2013-01-16 20:18:00,22.3,20.3,29.65,ENE,68,0.0,0.0,92,0.00,CLR,,0.00,WeatherDisplay:10.37,2013-01-17 05:18:00,
2013-01-16 20:23:00,22.5,20.5,29.65,ENE,68,0.0,0.0,92,0.00,CLR,,0.00,WeatherDisplay:10.37,2013-01-17 05:23:00,
2013-01-16 20:28:00,22.5,20.7,29.65,ENE,68,0.0,0.0,93,0.00,CLR,,0.00,WeatherDisplay:10.37,2013-01-17 05:28:00,
2013-01-16 20:33:00,22.5,20.7,29.65,NNE,22,0.0,0.0,93,0.00,CLR,,0.00,WeatherDisplay:10.37,2013-01-17 05:33:00,
2013-01-16 20:38:00,22.5,20.7,29.65,NNE,22,0.0,0.0,93,0.00,CLR,,0.00,WeatherDisplay:10.37,2013-01-17 05:38:00,
2013-01-16 20:43:00,22.3,20.6,29.65,NNE,22,0.0,0.0,93,0.00,CLR,,0.00,WeatherDisplay:10.37,2013-01-17 05:43:00,
2013-01-16 20:48:00,22.3,20.3,29.65,NNE,22,0.0,0.0,92,0.00,CLR,,0.00,WeatherDisplay:10.37,2013-01-17 05:48:00,
2013-01-16 20:53:00,22.3,20.3,29.65,NNE,22,0.0,0.0,92,0.00,CLR,,0.00,WeatherDisplay:10.37,2013-01-17 05:53:00,
2013-01-16 20:58:00,22.1,19.9,29.65,NNE,22,0.0,0.0,91,0.00,CLR,,0.00,WeatherDisplay:10.37,2013-01-17 05:58:00,
2013-01-16 21:03:00,21.9,19.7,29.65,NNE,22,0.0,0.9,91,0.00,CLR,,0.00,WeatherDisplay:10.37,2013-01-17 06:03:00,
2013-01-16 21:08:00,21.9,19.7,29.65,NNE,22,0.0,0.0,91,0.00,CLR,,0.00,WeatherDisplay:10.37,2013-01-17 06:08:00,
2013-01-16 21:13:00,21.9,19.7,29.65,NNE,22,0.0,0.0,91,0.00,CLR,,0.00,WeatherDisplay:10.37,2013-01-17 06:13:00,
2013-01-16 21:18:00,21.9,19.7,29.65,NNE,22,0.0,0.0,91,0.00,CLR,,0.00,WeatherDisplay:10.37,2013-01-17 06:18:00,
2013-01-16 21:23:00,21.7,19.5,29.65,NNE,22,0.0,0.0,91,0.00,CLR,,0.00,WeatherDisplay:10.37,2013-01-17 06:23:00,
2013-01-16 21:28:00,21.7,19.5,29.65,NNE,22,0.0,0.0,91,0.00,CLR,,0.00,WeatherDisplay:10.37,2013-01-17 06:28:00,
2013-01-16 21:33:00,21.7,19.5,29.65,NNE,22,1.1,0.0,91,0.00,CLR,,0.00,WeatherDisplay:10.37,2013-01-17 06:33:00,
2013-01-16 21:38:00,21.6,19.3,29.65,NNE,22,0.0,0.0,91,0.00,CLR,,0.00,WeatherDisplay:10.37,2013-01-17 06:38:00,
2013-01-16 21:43:00,21.6,19.3,29.65,NNE,22,0.0,0.0,91,0.00,CLR,,0.00,WeatherDisplay:10.37,2013-01-17 06:43:00,
2013-01-16 21:48:00,21.6,19.3,29.65,NNE,22,0.0,0.0,91,0.00,CLR,,0.00,WeatherDisplay:10.37,2013-01-17 06:48:00,
2013-01-16 21:53:00,21.6,19.3,29.62,NNE,22,0.0,0.0,91,0.00,CLR,,0.00,WeatherDisplay:10.37,2013-01-17 06:53:00,
2013-01-16 21:58:00,21.6,19.3,29.62,NNE,22,0.0,0.0,91,0.00,CLR,,0.00,WeatherDisplay:10.37,2013-01-17 06:58:00,
2013-01-16 22:03:00,21.6,19.6,29.62,NNE,22,0.0,0.0,92,0.00,CLR,,0.00,WeatherDisplay:10.37,2013-01-17 07:03:00,
2013-01-16 22:09:00,21.6,19.3,29.62,NNE,22,0.0,0.0,91,0.00,CLR,,0.00,WeatherDisplay:10.37,2013-01-17 07:09:00,
2013-01-16 22:14:00,21.6,19.6,29.62,NNE,22,0.0,0.0,92,0.00,CLR,,0.00,WeatherDisplay:10.37,2013-01-17 07:14:00,
2013-01-16 22:19:00,21.6,19.6,29.62,NNE,22,0.0,0.0,92,0.00,CLR,,0.00,WeatherDisplay:10.37,2013-01-17 07:19:00,
2013-01-16 22:24:00,21.6,19.6,29.62,NNE,22,0.0,0.0,92,0.00,CLR,,0.00,WeatherDisplay:10.37,2013-01-17 07:24:00,
2013-01-16 22:29:00,21.7,20.0,29.62,NNE,22,0.0,0.0,93,0.00,CLR,,0.00,WeatherDisplay:10.37,2013-01-17 07:29:00,
2013-01-16 22:34:00,21.7,20.0,29.62,NNE,22,0.0,0.0,93,0.00,CLR,,0.00,WeatherDisplay:10.37,2013-01-17 07:34:00,
2013-01-16 22:39:00,21.6,19.9,29.62,NNE,22,0.0,0.0,93,0.00,CLR,,0.00,WeatherDisplay:10.37,2013-01-17 07:39:00,
2013-01-16 22:44:00,21.6,19.6,29.62,NNE,22,0.0,0.0,92,0.00,CLR,,0.00,WeatherDisplay:10.37,2013-01-17 07:44:00,
2013-01-16 22:49:00,21.4,19.4,29.62,NNE,22,0.0,0.0,92,0.00,CLR,,0.00,WeatherDisplay:10.37,2013-01-17 07:49:00,
2013-01-16 22:54:00,21.4,19.2,29.62,NNE,22,0.0,0.0,91,0.00,CLR,,0.00,WeatherDisplay:10.37,2013-01-17 07:54:00,
2013-01-16 22:59:00,21.4,19.2,29.62,NNE,22,0.0,0.0,91,0.00,CLR,,0.00,WeatherDisplay:10.37,2013-01-17 07:59:00,
2013-01-16 23:04:00,21.4,19.2,29.62,NNE,22,0.0,0.0,91,0.00,CLR,,0.00,WeatherDisplay:10.37,2013-01-17 08:04:00,
2013-01-16 23:09:00,21.4,19.2,29.62,NNE,22,0.0,0.0,91,0.00,CLR,,0.00,WeatherDisplay:10.37,2013-01-17 08:09:00,
2013-01-16 23:14:00,21.4,19.2,29.62,NNE,22,0.0,0.0,91,0.00,CLR,,0.00,WeatherDisplay:10.37,2013-01-17 08:14:00,
2013-01-16 23:19:00,21.2,19.2,29.62,NNE,22,0.0,0.0,92,0.00,CLR,,0.00,WeatherDisplay:10.37,2013-01-17 08:19:00,
2013-01-16 23:24:00,21.2,19.2,29.62,NNE,22,0.0,0.0,92,0.00,CLR,,0.00,WeatherDisplay:10.37,2013-01-17 08:24:00,
2013-01-16 23:29:00,21.2,19.2,29.62,NNE,22,0.0,0.0,92,0.00,CLR,,0.00,WeatherDisplay:10.37,2013-01-17 08:29:00,
2013-01-16 23:34:00,21.2,19.2,29.62,NNE,22,0.0,0.0,92,0.00,CLR,,0.00,WeatherDisplay:10.37,2013-01-17 08:34:00,
2013-01-16 23:39:00,21.2,19.2,29.59,NNE,22,0.0,0.0,92,0.00,CLR,,0.00,WeatherDisplay:10.37,2013-01-17 08:39:00,
2013-01-16 23:44:00,21.2,19.2,29.59,NNE,22,0.0,0.0,92,0.00,CLR,,0.00,WeatherDisplay:10.37,2013-01-17 08:44:00,
2013-01-16 23:49:00,21.2,19.2,29.59,NNE,22,0.0,0.0,92,0.00,CLR,,0.00,WeatherDisplay:10.37,2013-01-17 08:49:00,
2013-01-16 23:54:00,21.2,19.2,29.59,NNE,22,0.0,0.0,92,0.00,CLR,,0.00,WeatherDisplay:10.37,2013-01-17 08:54:00,
2013-01-16 23:59:00,21.2,19.2,29.59,NNE,22,0.0,0.0,92,0.00,CLR,,0.00,WeatherDisplay:10.37,2013-01-17 08:59:00,